sensor_id;sensor_type;location;lat;lon;timestamp;temperature;humidity
22923;DHT22;11627;51.322;22.816;2022-09-30T00:00:30;9.10;1.00
22923;DHT22;11627;51.322;22.816;2022-09-30T00:02:55;9.10;1.00
22923;DHT22;11627;51.322;22.816;2022-09-30T00:05:21;9.10;1.00
22923;DHT22;11627;51.322;22.816;2022-09-30T00:07:48;9.00;1.00
22923;DHT22;11627;51.322;22.816;2022-09-30T00:10:14;8.80;1.00
22923;DHT22;11627;51.322;22.816;2022-09-30T00:12:43;8.80;1.00
22923;DHT22;11627;51.322;22.816;2022-09-30T00:15:09;9.10;1.00
22923;DHT22;11627;51.322;22.816;2022-09-30T00:17:35;9.10;1.00
22923;DHT22;11627;51.322;22.816;2022-09-30T00:20:01;9.00;1.00
22923;DHT22;11627;51.322;22.816;2022-09-30T00:22:27;9.20;1.00
22923;DHT22;11627;51.322;22.816;2022-09-30T00:24:53;9.20;1.00
22923;DHT22;11627;51.322;22.816;2022-09-30T00:27:20;8.90;1.00
22923;DHT22;11627;51.322;22.816;2022-09-30T00:29:46;9.00;1.00
22923;DHT22;11627;51.322;22.816;2022-09-30T00:34:38;8.80;1.00
22923;DHT22;11627;51.322;22.816;2022-09-30T00:37:03;9.10;2.30
22923;DHT22;11627;51.322;22.816;2022-09-30T00:41:58;9.00;1.00
22923;DHT22;11627;51.322;22.816;2022-09-30T00:47:55;8.70;1.00
22923;DHT22;11627;51.322;22.816;2022-09-30T00:50:41;8.80;1.00
22923;DHT22;11627;51.322;22.816;2022-09-30T00:53:15;9.20;1.00
22923;DHT22;11627;51.322;22.816;2022-09-30T00:58:46;8.80;1.00
22923;DHT22;11627;51.322;22.816;2022-09-30T01:03:47;8.40;12.00
22923;DHT22;11627;51.322;22.816;2022-09-30T01:06:16;8.70;6.50
22923;DHT22;11627;51.322;22.816;2022-09-30T01:08:44;8.70;1.00
22923;DHT22;11627;51.322;22.816;2022-09-30T01:11:11;8.60;1.00
22923;DHT22;11627;51.322;22.816;2022-09-30T01:13:38;8.50;1.00
22923;DHT22;11627;51.322;22.816;2022-09-30T01:19:01;8.70;1.00
22923;DHT22;11627;51.322;22.816;2022-09-30T01:21:56;8.60;1.00
22923;DHT22;11627;51.322;22.816;2022-09-30T01:34:23;8.30;1.00
22923;DHT22;11627;51.322;22.816;2022-09-30T01:45:43;8.70;1.00
22923;DHT22;11627;51.322;22.816;2022-09-30T01:51:56;8.30;1.00
22923;DHT22;11627;51.322;22.816;2022-09-30T02:00:43;8.40;1.00
22923;DHT22;11627;51.322;22.816;2022-09-30T02:03:21;8.10;1.00
22923;DHT22;11627;51.322;22.816;2022-09-30T02:05:58;8.30;1.00
22923;DHT22;11627;51.322;22.816;2022-09-30T02:08:55;8.20;1.00
22923;DHT22;11627;51.322;22.816;2022-09-30T02:11:27;8.00;1.00
22923;DHT22;11627;51.322;22.816;2022-09-30T02:17:13;8.10;1.00
22923;DHT22;11627;51.322;22.816;2022-09-30T02:19:51;8.00;1.00
22923;DHT22;11627;51.322;22.816;2022-09-30T02:22:37;7.70;1.00
22923;DHT22;11627;51.322;22.816;2022-09-30T02:25:30;7.70;1.00
22923;DHT22;11627;51.322;22.816;2022-09-30T02:28:04;7.70;1.00
22923;DHT22;11627;51.322;22.816;2022-09-30T02:30:39;7.80;1.00
22923;DHT22;11627;51.322;22.816;2022-09-30T02:33:14;8.10;1.00
22923;DHT22;11627;51.322;22.816;2022-09-30T02:35:46;8.00;1.00
22923;DHT22;11627;51.322;22.816;2022-09-30T02:38:30;8.10;1.00
22923;DHT22;11627;51.322;22.816;2022-09-30T02:41:10;8.10;1.00
22923;DHT22;11627;51.322;22.816;2022-09-30T02:43:38;7.50;1.00
22923;DHT22;11627;51.322;22.816;2022-09-30T02:49:26;7.80;1.00
22923;DHT22;11627;51.322;22.816;2022-09-30T02:58:43;7.80;1.00
22923;DHT22;11627;51.322;22.816;2022-09-30T03:01:12;7.70;1.00
22923;DHT22;11627;51.322;22.816;2022-09-30T03:03:55;8.10;1.00
22923;DHT22;11627;51.322;22.816;2022-09-30T03:08:51;7.70;1.00
22923;DHT22;11627;51.322;22.816;2022-09-30T03:11:20;7.70;1.00
22923;DHT22;11627;51.322;22.816;2022-09-30T03:22:46;7.70;1.00
22923;DHT22;11627;51.322;22.816;2022-09-30T03:29:25;7.90;1.00
22923;DHT22;11627;51.322;22.816;2022-09-30T03:41:14;7.60;1.00
22923;DHT22;11627;51.322;22.816;2022-09-30T03:46:50;7.30;1.00
22923;DHT22;11627;51.322;22.816;2022-09-30T03:49:24;7.50;1.00
22923;DHT22;11627;51.322;22.816;2022-09-30T03:51:59;7.50;1.00
22923;DHT22;11627;51.322;22.816;2022-09-30T03:54:30;7.50;1.00
22923;DHT22;11627;51.322;22.816;2022-09-30T03:56:56;7.40;1.00
22923;DHT22;11627;51.322;22.816;2022-09-30T03:59:27;7.40;1.00
22923;DHT22;11627;51.322;22.816;2022-09-30T04:01:53;6.80;1.00
22923;DHT22;11627;51.322;22.816;2022-09-30T04:04:21;7.30;1.00
22923;DHT22;11627;51.322;22.816;2022-09-30T04:06:47;7.50;1.00
22923;DHT22;11627;51.322;22.816;2022-09-30T04:09:13;7.50;1.00
22923;DHT22;11627;51.322;22.816;2022-09-30T04:11:40;7.60;1.00
22923;DHT22;11627;51.322;22.816;2022-09-30T04:14:06;7.50;1.00
22923;DHT22;11627;51.322;22.816;2022-09-30T04:16:32;7.10;1.00
22923;DHT22;11627;51.322;22.816;2022-09-30T04:18:58;7.20;1.00
22923;DHT22;11627;51.322;22.816;2022-09-30T04:21:25;7.40;1.00
22923;DHT22;11627;51.322;22.816;2022-09-30T04:28:47;7.40;1.00
22923;DHT22;11627;51.322;22.816;2022-09-30T04:33:45;7.30;1.00
22923;DHT22;11627;51.322;22.816;2022-09-30T04:38:40;7.30;1.00
22923;DHT22;11627;51.322;22.816;2022-09-30T04:41:07;7.30;1.00
22923;DHT22;11627;51.322;22.816;2022-09-30T04:43:34;7.40;1.00
22923;DHT22;11627;51.322;22.816;2022-09-30T04:46:02;7.40;1.00
22923;DHT22;11627;51.322;22.816;2022-09-30T04:48:29;7.20;1.00
22923;DHT22;11627;51.322;22.816;2022-09-30T04:50:57;7.10;1.00
22923;DHT22;11627;51.322;22.816;2022-09-30T04:53:26;7.10;1.00
22923;DHT22;11627;51.322;22.816;2022-09-30T04:56:00;7.00;1.00
22923;DHT22;11627;51.322;22.816;2022-09-30T04:58:27;7.30;1.00
22923;DHT22;11627;51.322;22.816;2022-09-30T05:01:05;7.20;1.00
22923;DHT22;11627;51.322;22.816;2022-09-30T05:03:33;7.30;1.00
22923;DHT22;11627;51.322;22.816;2022-09-30T05:06:05;7.10;1.00
22923;DHT22;11627;51.322;22.816;2022-09-30T05:08:31;7.20;1.00
22923;DHT22;11627;51.322;22.816;2022-09-30T05:11:14;7.30;1.00
22923;DHT22;11627;51.322;22.816;2022-09-30T05:13:42;7.40;1.00
22923;DHT22;11627;51.322;22.816;2022-09-30T05:16:09;7.40;1.00
22923;DHT22;11627;51.322;22.816;2022-09-30T05:18:37;7.10;1.00
22923;DHT22;11627;51.322;22.816;2022-09-30T05:21:05;7.40;1.00
22923;DHT22;11627;51.322;22.816;2022-09-30T05:23:31;7.60;1.00
22923;DHT22;11627;51.322;22.816;2022-09-30T05:26:00;7.50;1.00
22923;DHT22;11627;51.322;22.816;2022-09-30T05:30:59;7.40;1.00
22923;DHT22;11627;51.322;22.816;2022-09-30T05:33:29;7.60;1.00
22923;DHT22;11627;51.322;22.816;2022-09-30T05:36:01;7.50;1.00
22923;DHT22;11627;51.322;22.816;2022-09-30T05:40:54;7.60;1.00
22923;DHT22;11627;51.322;22.816;2022-09-30T05:43:20;7.60;1.00
22923;DHT22;11627;51.322;22.816;2022-09-30T05:45:56;7.80;1.00
22923;DHT22;11627;51.322;22.816;2022-09-30T05:48:24;7.90;1.00
22923;DHT22;11627;51.322;22.816;2022-09-30T05:50:56;7.70;1.00
22923;DHT22;11627;51.322;22.816;2022-09-30T05:53:24;7.60;1.00
22923;DHT22;11627;51.322;22.816;2022-09-30T05:55:50;7.80;1.00
22923;DHT22;11627;51.322;22.816;2022-09-30T05:58:17;8.00;1.00
22923;DHT22;11627;51.322;22.816;2022-09-30T06:00:46;7.80;4.00
22923;DHT22;11627;51.322;22.816;2022-09-30T06:03:14;7.70;10.70
22923;DHT22;11627;51.322;22.816;2022-09-30T06:13:04;8.40;17.60
22923;DHT22;11627;51.322;22.816;2022-09-30T06:15:30;8.00;20.70
22923;DHT22;11627;51.322;22.816;2022-09-30T06:17:57;8.30;21.40
22923;DHT22;11627;51.322;22.816;2022-09-30T06:20:23;8.60;16.00
22923;DHT22;11627;51.322;22.816;2022-09-30T06:22:51;8.70;21.10
22923;DHT22;11627;51.322;22.816;2022-09-30T06:25:18;8.60;23.70
22923;DHT22;11627;51.322;22.816;2022-09-30T06:27:45;9.10;27.70
22923;DHT22;11627;51.322;22.816;2022-09-30T06:30:12;8.90;29.10
22923;DHT22;11627;51.322;22.816;2022-09-30T06:32:39;9.40;31.70
22923;DHT22;11627;51.322;22.816;2022-09-30T06:35:07;8.90;32.90
22923;DHT22;11627;51.322;22.816;2022-09-30T06:37:34;8.90;32.90
22923;DHT22;11627;51.322;22.816;2022-09-30T06:40:02;9.40;34.30
22923;DHT22;11627;51.322;22.816;2022-09-30T06:42:32;9.10;36.20
22923;DHT22;11627;51.322;22.816;2022-09-30T06:44:59;9.40;37.30
22923;DHT22;11627;51.322;22.816;2022-09-30T06:47:25;9.70;36.30
22923;DHT22;11627;51.322;22.816;2022-09-30T06:49:52;9.30;34.10
22923;DHT22;11627;51.322;22.816;2022-09-30T06:52:22;9.80;32.40
22923;DHT22;11627;51.322;22.816;2022-09-30T06:57:17;9.70;33.10
22923;DHT22;11627;51.322;22.816;2022-09-30T06:59:47;10.00;32.90
22923;DHT22;11627;51.322;22.816;2022-09-30T07:02:15;10.00;35.10
22923;DHT22;11627;51.322;22.816;2022-09-30T07:04:41;9.80;35.80
22923;DHT22;11627;51.322;22.816;2022-09-30T07:07:07;10.00;37.40
22923;DHT22;11627;51.322;22.816;2022-09-30T07:09:34;9.80;30.00
22923;DHT22;11627;51.322;22.816;2022-09-30T07:12:00;10.20;38.80
22923;DHT22;11627;51.322;22.816;2022-09-30T07:19:18;10.00;39.70
22923;DHT22;11627;51.322;22.816;2022-09-30T07:21:49;9.90;38.80
22923;DHT22;11627;51.322;22.816;2022-09-30T07:24:16;10.30;34.40
22923;DHT22;11627;51.322;22.816;2022-09-30T07:26:43;10.40;38.80
22923;DHT22;11627;51.322;22.816;2022-09-30T07:29:11;10.20;35.70
22923;DHT22;11627;51.322;22.816;2022-09-30T07:31:38;10.30;35.90
22923;DHT22;11627;51.322;22.816;2022-09-30T07:34:06;10.40;35.20
22923;DHT22;11627;51.322;22.816;2022-09-30T07:36:36;10.30;30.40
22923;DHT22;11627;51.322;22.816;2022-09-30T07:39:06;10.10;34.00
22923;DHT22;11627;51.322;22.816;2022-09-30T07:41:33;10.00;37.60
22923;DHT22;11627;51.322;22.816;2022-09-30T07:44:02;10.20;39.60
22923;DHT22;11627;51.322;22.816;2022-09-30T07:46:31;10.70;41.00
22923;DHT22;11627;51.322;22.816;2022-09-30T07:48:59;10.50;31.10
22923;DHT22;11627;51.322;22.816;2022-09-30T07:51:47;10.50;28.50
22923;DHT22;11627;51.322;22.816;2022-09-30T07:54:15;10.70;35.90
22923;DHT22;11627;51.322;22.816;2022-09-30T07:56:45;10.60;23.70
22923;DHT22;11627;51.322;22.816;2022-09-30T07:59:12;10.00;21.50
22923;DHT22;11627;51.322;22.816;2022-09-30T08:01:37;10.50;28.00
22923;DHT22;11627;51.322;22.816;2022-09-30T08:04:07;10.60;21.60
22923;DHT22;11627;51.322;22.816;2022-09-30T08:06:42;10.60;29.20
22923;DHT22;11627;51.322;22.816;2022-09-30T08:09:16;10.50;30.20
22923;DHT22;11627;51.322;22.816;2022-09-30T08:11:44;10.90;31.60
22923;DHT22;11627;51.322;22.816;2022-09-30T08:14:24;10.80;30.20
22923;DHT22;11627;51.322;22.816;2022-09-30T08:16:52;11.00;27.50
22923;DHT22;11627;51.322;22.816;2022-09-30T08:19:21;10.80;26.30
22923;DHT22;11627;51.322;22.816;2022-09-30T08:21:50;10.60;23.70
22923;DHT22;11627;51.322;22.816;2022-09-30T08:26:46;11.20;25.60
22923;DHT22;11627;51.322;22.816;2022-09-30T08:29:11;11.10;26.00
22923;DHT22;11627;51.322;22.816;2022-09-30T08:31:39;11.10;25.70
22923;DHT22;11627;51.322;22.816;2022-09-30T08:34:05;10.70;22.50
22923;DHT22;11627;51.322;22.816;2022-09-30T08:36:31;11.20;19.00
22923;DHT22;11627;51.322;22.816;2022-09-30T08:38:57;10.90;13.90
22923;DHT22;11627;51.322;22.816;2022-09-30T08:47:46;11.10;18.50
22923;DHT22;11627;51.322;22.816;2022-09-30T08:51:35;11.50;22.30
22923;DHT22;11627;51.322;22.816;2022-09-30T08:54:05;11.20;23.70
22923;DHT22;11627;51.322;22.816;2022-09-30T08:56:37;11.50;25.20
22923;DHT22;11627;51.322;22.816;2022-09-30T09:02:26;11.40;24.30
22923;DHT22;11627;51.322;22.816;2022-09-30T09:04:59;11.40;23.80
22923;DHT22;11627;51.322;22.816;2022-09-30T09:10:33;11.50;21.80
22923;DHT22;11627;51.322;22.816;2022-09-30T09:17:20;11.80;22.70
22923;DHT22;11627;51.322;22.816;2022-09-30T09:19:56;11.60;17.50
22923;DHT22;11627;51.322;22.816;2022-09-30T09:22:24;11.70;16.20
22923;DHT22;11627;51.322;22.816;2022-09-30T09:24:53;11.80;24.20
22923;DHT22;11627;51.322;22.816;2022-09-30T09:27:54;11.80;26.40
22923;DHT22;11627;51.322;22.816;2022-09-30T09:30:22;12.00;25.60
22923;DHT22;11627;51.322;22.816;2022-09-30T09:32:54;11.80;25.70
22923;DHT22;11627;51.322;22.816;2022-09-30T09:38:18;11.70;16.10
22923;DHT22;11627;51.322;22.816;2022-09-30T09:47:09;12.00;1.00
22923;DHT22;11627;51.322;22.816;2022-09-30T09:49:59;12.10;1.00
22923;DHT22;11627;51.322;22.816;2022-09-30T09:55:21;12.00;1.00
22923;DHT22;11627;51.322;22.816;2022-09-30T09:58:03;12.40;1.00
22923;DHT22;11627;51.322;22.816;2022-09-30T10:00:30;12.40;1.00
22923;DHT22;11627;51.322;22.816;2022-09-30T10:03:35;11.80;1.00
22923;DHT22;11627;51.322;22.816;2022-09-30T10:06:05;12.20;1.00
22923;DHT22;11627;51.322;22.816;2022-09-30T10:08:36;11.90;1.00
22923;DHT22;11627;51.322;22.816;2022-09-30T10:11:20;12.20;2.10
22923;DHT22;11627;51.322;22.816;2022-09-30T10:13:47;12.20;1.00
22923;DHT22;11627;51.322;22.816;2022-09-30T10:16:34;12.40;1.00
22923;DHT22;11627;51.322;22.816;2022-09-30T10:19:15;11.90;1.00
22923;DHT22;11627;51.322;22.816;2022-09-30T10:24:42;12.10;11.30
22923;DHT22;11627;51.322;22.816;2022-09-30T10:27:30;12.20;13.90
22923;DHT22;11627;51.322;22.816;2022-09-30T10:29:57;12.30;14.50
22923;DHT22;11627;51.322;22.816;2022-09-30T10:32:24;12.50;14.80
22923;DHT22;11627;51.322;22.816;2022-09-30T10:35:46;11.90;13.90
22923;DHT22;11627;51.322;22.816;2022-09-30T10:37:51;12.20;6.20
22923;DHT22;11627;51.322;22.816;2022-09-30T10:40:18;12.20;15.00
22923;DHT22;11627;51.322;22.816;2022-09-30T10:42:51;12.40;15.20
22923;DHT22;11627;51.322;22.816;2022-09-30T10:47:49;12.20;18.40
22923;DHT22;11627;51.322;22.816;2022-09-30T10:50:24;12.40;20.70
22923;DHT22;11627;51.322;22.816;2022-09-30T10:52:57;12.10;16.50
22923;DHT22;11627;51.322;22.816;2022-09-30T10:55:26;12.20;10.10
22923;DHT22;11627;51.322;22.816;2022-09-30T10:58:20;12.40;1.00
22923;DHT22;11627;51.322;22.816;2022-09-30T11:06:42;12.20;6.90
22923;DHT22;11627;51.322;22.816;2022-09-30T11:09:33;12.00;1.00
22923;DHT22;11627;51.322;22.816;2022-09-30T11:15:27;12.20;1.00
22923;DHT22;11627;51.322;22.816;2022-09-30T11:20:42;12.20;1.00
22923;DHT22;11627;51.322;22.816;2022-09-30T11:23:35;12.30;6.70
22923;DHT22;11627;51.322;22.816;2022-09-30T11:37:32;12.30;23.40
22923;DHT22;11627;51.322;22.816;2022-09-30T11:43:34;11.90;23.00
22923;DHT22;11627;51.322;22.816;2022-09-30T11:52:04;12.00;16.00
22923;DHT22;11627;51.322;22.816;2022-09-30T11:58:06;12.40;20.60
22923;DHT22;11627;51.322;22.816;2022-09-30T12:00:42;12.20;15.20
22923;DHT22;11627;51.322;22.816;2022-09-30T12:03:26;12.00;22.80
22923;DHT22;11627;51.322;22.816;2022-09-30T12:06:00;12.10;15.80
22923;DHT22;11627;51.322;22.816;2022-09-30T12:08:35;12.10;24.80
22923;DHT22;11627;51.322;22.816;2022-09-30T12:11:08;11.90;29.80
22923;DHT22;11627;51.322;22.816;2022-09-30T12:13:47;11.80;27.60
22923;DHT22;11627;51.322;22.816;2022-09-30T12:16:19;12.10;27.30
22923;DHT22;11627;51.322;22.816;2022-09-30T12:19:14;11.90;31.50
22923;DHT22;11627;51.322;22.816;2022-09-30T12:25:24;12.10;46.30
22923;DHT22;11627;51.322;22.816;2022-09-30T12:28:15;11.70;44.80
22923;DHT22;11627;51.322;22.816;2022-09-30T12:49:32;11.80;53.60
22923;DHT22;11627;51.322;22.816;2022-09-30T12:52:26;11.90;63.80
22923;DHT22;11627;51.322;22.816;2022-09-30T12:54:55;12.10;59.10
22923;DHT22;11627;51.322;22.816;2022-09-30T12:57:27;11.80;65.30
22923;DHT22;11627;51.322;22.816;2022-09-30T13:00:06;12.10;65.70
22923;DHT22;11627;51.322;22.816;2022-09-30T13:02:57;11.80;54.90
22923;DHT22;11627;51.322;22.816;2022-09-30T13:10:33;11.80;57.00
22923;DHT22;11627;51.322;22.816;2022-09-30T13:13:26;12.50;57.30
22923;DHT22;11627;51.322;22.816;2022-09-30T13:15:54;11.70;56.30
22923;DHT22;11627;51.322;22.816;2022-09-30T13:23:53;11.90;68.70
22923;DHT22;11627;51.322;22.816;2022-09-30T13:26:30;12.00;69.30
22923;DHT22;11627;51.322;22.816;2022-09-30T13:31:31;11.60;69.50
22923;DHT22;11627;51.322;22.816;2022-09-30T13:34:26;11.60;60.30
22923;DHT22;11627;51.322;22.816;2022-09-30T13:37:02;11.70;61.70
22923;DHT22;11627;51.322;22.816;2022-09-30T13:39:42;11.90;70.10
22923;DHT22;11627;51.322;22.816;2022-09-30T13:42:24;11.50;69.90
22923;DHT22;11627;51.322;22.816;2022-09-30T13:50:51;11.90;68.20
22923;DHT22;11627;51.322;22.816;2022-09-30T13:56:32;11.40;66.00
22923;DHT22;11627;51.322;22.816;2022-09-30T14:13:42;11.60;71.80
22923;DHT22;11627;51.322;22.816;2022-09-30T14:22:05;11.30;68.70
22923;DHT22;11627;51.322;22.816;2022-09-30T14:24:35;11.20;68.80
22923;DHT22;11627;51.322;22.816;2022-09-30T14:27:43;11.30;70.30
22923;DHT22;11627;51.322;22.816;2022-09-30T14:30:25;11.40;69.50
22923;DHT22;11627;51.322;22.816;2022-09-30T14:32:59;11.00;69.00
22923;DHT22;11627;51.322;22.816;2022-09-30T14:35:31;11.30;69.30
22923;DHT22;11627;51.322;22.816;2022-09-30T14:38:03;11.40;68.80
22923;DHT22;11627;51.322;22.816;2022-09-30T14:40:35;11.10;70.30
22923;DHT22;11627;51.322;22.816;2022-09-30T14:43:14;11.20;71.20
22923;DHT22;11627;51.322;22.816;2022-09-30T14:45:45;11.30;65.40
22923;DHT22;11627;51.322;22.816;2022-09-30T14:48:23;11.20;60.50
22923;DHT22;11627;51.322;22.816;2022-09-30T14:51:12;11.20;60.10
22923;DHT22;11627;51.322;22.816;2022-09-30T14:53:52;11.20;60.10
22923;DHT22;11627;51.322;22.816;2022-09-30T14:56:24;11.10;69.50
22923;DHT22;11627;51.322;22.816;2022-09-30T15:01:21;10.90;71.20
22923;DHT22;11627;51.322;22.816;2022-09-30T15:03:58;11.20;69.00
22923;DHT22;11627;51.322;22.816;2022-09-30T15:06:31;11.20;63.40
22923;DHT22;11627;51.322;22.816;2022-09-30T15:09:29;11.10;72.20
22923;DHT22;11627;51.322;22.816;2022-09-30T15:12:15;11.20;63.30
22923;DHT22;11627;51.322;22.816;2022-09-30T15:14:52;11.10;71.30
22923;DHT22;11627;51.322;22.816;2022-09-30T15:17:35;11.20;66.50
22923;DHT22;11627;51.322;22.816;2022-09-30T15:20:23;11.20;62.20
22923;DHT22;11627;51.322;22.816;2022-09-30T15:22:57;11.30;72.90
22923;DHT22;11627;51.322;22.816;2022-09-30T15:25:26;11.40;67.30
22923;DHT22;11627;51.322;22.816;2022-09-30T15:27:53;11.30;73.50
22923;DHT22;11627;51.322;22.816;2022-09-30T15:30:27;11.30;71.30
22923;DHT22;11627;51.322;22.816;2022-09-30T15:33:02;11.30;72.00
22923;DHT22;11627;51.322;22.816;2022-09-30T15:35:30;11.30;74.30
22923;DHT22;11627;51.322;22.816;2022-09-30T15:38:19;11.20;64.10
22923;DHT22;11627;51.322;22.816;2022-09-30T15:41:00;11.20;64.30
22923;DHT22;11627;51.322;22.816;2022-09-30T15:43:47;11.10;75.30
22923;DHT22;11627;51.322;22.816;2022-09-30T15:47:10;10.90;74.90
22923;DHT22;11627;51.322;22.816;2022-09-30T15:49:56;10.90;74.90
22923;DHT22;11627;51.322;22.816;2022-09-30T15:52:35;11.10;65.40
22923;DHT22;11627;51.322;22.816;2022-09-30T15:55:40;11.10;66.80
22923;DHT22;11627;51.322;22.816;2022-09-30T15:59:10;11.10;67.20
22923;DHT22;11627;51.322;22.816;2022-09-30T16:02:00;11.10;76.60
22923;DHT22;11627;51.322;22.816;2022-09-30T16:04:26;11.10;76.30
22923;DHT22;11627;51.322;22.816;2022-09-30T16:06:56;11.20;67.20
22923;DHT22;11627;51.322;22.816;2022-09-30T16:09:27;11.00;77.10
22923;DHT22;11627;51.322;22.816;2022-09-30T16:12:19;11.00;77.80
22923;DHT22;11627;51.322;22.816;2022-09-30T16:15:04;11.40;77.80
22923;DHT22;11627;51.322;22.816;2022-09-30T16:17:46;11.10;71.50
22923;DHT22;11627;51.322;22.816;2022-09-30T16:25:24;10.90;71.70
22923;DHT22;11627;51.322;22.816;2022-09-30T16:28:13;11.40;78.70
22923;DHT22;11627;51.322;22.816;2022-09-30T16:30:52;11.20;68.60
22923;DHT22;11627;51.322;22.816;2022-09-30T16:33:18;11.20;70.90
22923;DHT22;11627;51.322;22.816;2022-09-30T16:35:46;11.10;78.50
22923;DHT22;11627;51.322;22.816;2022-09-30T16:38:14;11.30;79.40
22923;DHT22;11627;51.322;22.816;2022-09-30T16:43:09;11.30;74.30
22923;DHT22;11627;51.322;22.816;2022-09-30T16:45:37;11.20;79.80
22923;DHT22;11627;51.322;22.816;2022-09-30T16:48:15;11.20;70.20
22923;DHT22;11627;51.322;22.816;2022-09-30T16:50:48;11.50;70.40
22923;DHT22;11627;51.322;22.816;2022-09-30T16:53:16;11.30;73.80
22923;DHT22;11627;51.322;22.816;2022-09-30T16:58:11;11.40;81.40
22923;DHT22;11627;51.322;22.816;2022-09-30T17:00:40;11.10;81.00
22923;DHT22;11627;51.322;22.816;2022-09-30T17:03:16;11.40;80.80
22923;DHT22;11627;51.322;22.816;2022-09-30T17:05:44;11.50;81.10
22923;DHT22;11627;51.322;22.816;2022-09-30T17:08:20;11.20;81.90
22923;DHT22;11627;51.322;22.816;2022-09-30T17:10:47;11.10;82.30
22923;DHT22;11627;51.322;22.816;2022-09-30T17:13:17;11.30;81.60
22923;DHT22;11627;51.322;22.816;2022-09-30T17:15:51;11.30;72.30
22923;DHT22;11627;51.322;22.816;2022-09-30T17:20:47;11.40;82.70
22923;DHT22;11627;51.322;22.816;2022-09-30T17:23:18;11.30;73.90
22923;DHT22;11627;51.322;22.816;2022-09-30T17:25:45;11.00;83.60
22923;DHT22;11627;51.322;22.816;2022-09-30T17:28:13;11.50;84.70
22923;DHT22;11627;51.322;22.816;2022-09-30T17:30:40;11.30;75.70
22923;DHT22;11627;51.322;22.816;2022-09-30T17:33:08;11.10;76.70
22923;DHT22;11627;51.322;22.816;2022-09-30T17:35:38;11.30;85.10
22923;DHT22;11627;51.322;22.816;2022-09-30T17:38:06;11.40;85.10
22923;DHT22;11627;51.322;22.816;2022-09-30T17:40:35;11.20;75.60
22923;DHT22;11627;51.322;22.816;2022-09-30T17:43:19;11.10;85.20
22923;DHT22;11627;51.322;22.816;2022-09-30T17:45:46;11.40;80.60
22923;DHT22;11627;51.322;22.816;2022-09-30T17:48:13;11.30;75.70
22923;DHT22;11627;51.322;22.816;2022-09-30T17:50:44;11.50;85.50
22923;DHT22;11627;51.322;22.816;2022-09-30T17:53:14;11.30;75.90
22923;DHT22;11627;51.322;22.816;2022-09-30T17:55:43;11.50;79.10
22923;DHT22;11627;51.322;22.816;2022-09-30T17:58:13;11.30;85.60
22923;DHT22;11627;51.322;22.816;2022-09-30T18:00:43;11.40;85.60
22923;DHT22;11627;51.322;22.816;2022-09-30T18:03:11;11.30;85.50
22923;DHT22;11627;51.322;22.816;2022-09-30T18:05:38;11.20;85.50
22923;DHT22;11627;51.322;22.816;2022-09-30T18:08:04;11.40;85.80
22923;DHT22;11627;51.322;22.816;2022-09-30T18:12:57;11.60;86.00
22923;DHT22;11627;51.322;22.816;2022-09-30T18:15:24;11.20;85.70
22923;DHT22;11627;51.322;22.816;2022-09-30T18:17:51;11.40;85.80
22923;DHT22;11627;51.322;22.816;2022-09-30T18:22:46;11.40;86.60
22923;DHT22;11627;51.322;22.816;2022-09-30T18:27:50;11.40;78.00
22923;DHT22;11627;51.322;22.816;2022-09-30T18:30:23;11.60;86.90
22923;DHT22;11627;51.322;22.816;2022-09-30T18:32:51;11.50;85.60
22923;DHT22;11627;51.322;22.816;2022-09-30T18:35:20;11.10;87.50
22923;DHT22;11627;51.322;22.816;2022-09-30T18:40:18;11.20;88.70
22923;DHT22;11627;51.322;22.816;2022-09-30T18:42:47;11.30;84.10
22923;DHT22;11627;51.322;22.816;2022-09-30T18:45:14;11.30;89.60
22923;DHT22;11627;51.322;22.816;2022-09-30T18:47:44;11.20;81.10
22923;DHT22;11627;51.322;22.816;2022-09-30T18:50:11;11.30;89.80
22923;DHT22;11627;51.322;22.816;2022-09-30T18:52:39;11.20;89.30
22923;DHT22;11627;51.322;22.816;2022-09-30T18:55:07;10.90;88.20
22923;DHT22;11627;51.322;22.816;2022-09-30T19:02:28;11.20;81.70
22923;DHT22;11627;51.322;22.816;2022-09-30T19:04:55;11.40;88.40
22923;DHT22;11627;51.322;22.816;2022-09-30T19:07:22;11.20;86.30
22923;DHT22;11627;51.322;22.816;2022-09-30T19:09:50;11.20;87.80
22923;DHT22;11627;51.322;22.816;2022-09-30T19:12:19;11.30;79.00
22923;DHT22;11627;51.322;22.816;2022-09-30T19:14:47;11.20;85.90
22923;DHT22;11627;51.322;22.816;2022-09-30T19:22:07;11.70;87.00
22923;DHT22;11627;51.322;22.816;2022-09-30T19:24:36;11.30;86.00
22923;DHT22;11627;51.322;22.816;2022-09-30T19:27:04;11.40;80.70
22923;DHT22;11627;51.322;22.816;2022-09-30T19:29:31;11.20;86.20
22923;DHT22;11627;51.322;22.816;2022-09-30T19:31:59;11.30;86.30
22923;DHT22;11627;51.322;22.816;2022-09-30T19:34:26;11.60;86.30
22923;DHT22;11627;51.322;22.816;2022-09-30T19:39:22;11.70;79.30
22923;DHT22;11627;51.322;22.816;2022-09-30T19:41:48;11.30;85.80
22923;DHT22;11627;51.322;22.816;2022-09-30T19:44:15;11.40;85.40
22923;DHT22;11627;51.322;22.816;2022-09-30T19:46:44;11.20;79.60
22923;DHT22;11627;51.322;22.816;2022-09-30T19:49:14;11.70;78.90
22923;DHT22;11627;51.322;22.816;2022-09-30T19:51:41;11.60;84.00
22923;DHT22;11627;51.322;22.816;2022-09-30T19:54:07;11.30;84.30
22923;DHT22;11627;51.322;22.816;2022-09-30T19:56:35;11.50;76.00
22923;DHT22;11627;51.322;22.816;2022-09-30T19:59:03;11.50;75.40
22923;DHT22;11627;51.322;22.816;2022-09-30T20:01:29;11.70;85.10
22923;DHT22;11627;51.322;22.816;2022-09-30T20:03:58;11.20;75.60
22923;DHT22;11627;51.322;22.816;2022-09-30T20:06:27;11.20;80.40
22923;DHT22;11627;51.322;22.816;2022-09-30T20:08:54;11.30;87.10
22923;DHT22;11627;51.322;22.816;2022-09-30T20:11:27;11.40;88.20
22923;DHT22;11627;51.322;22.816;2022-09-30T20:13:59;11.30;78.30
22923;DHT22;11627;51.322;22.816;2022-09-30T20:16:45;11.00;88.50
22923;DHT22;11627;51.322;22.816;2022-09-30T20:19:15;11.00;82.70
22923;DHT22;11627;51.322;22.816;2022-09-30T20:24:10;11.20;86.30
22923;DHT22;11627;51.322;22.816;2022-09-30T20:26:39;11.40;90.40
22923;DHT22;11627;51.322;22.816;2022-09-30T20:29:08;11.30;90.20
22923;DHT22;11627;51.322;22.816;2022-09-30T20:31:35;11.30;80.30
22923;DHT22;11627;51.322;22.816;2022-09-30T20:34:03;11.50;81.60
22923;DHT22;11627;51.322;22.816;2022-09-30T20:36:30;11.60;86.10
22923;DHT22;11627;51.322;22.816;2022-09-30T20:38:59;11.10;82.60
22923;DHT22;11627;51.322;22.816;2022-09-30T20:41:30;11.00;91.10
22923;DHT22;11627;51.322;22.816;2022-09-30T20:44:04;10.90;91.10
22923;DHT22;11627;51.322;22.816;2022-09-30T20:46:33;11.40;91.30
22923;DHT22;11627;51.322;22.816;2022-09-30T20:49:00;11.20;91.50
22923;DHT22;11627;51.322;22.816;2022-09-30T20:51:28;11.20;83.40